Aviation Digital Data Service (ADDS)

Output produced by METARs form (0748 UTC 20 February 2018)
found at http://www.aviationweather.gov/adds/metars/
 
KSAV 200700Z AUTO 00000KT 1/4SM R10/1800V2000FT FG VV001 16/16 A3037 RMK AO2 T01610161 $